CYXECYQR

Guest
Details From CYXE - Saskatoon J G Diefenbaker Intl
To CYQR - Regina Intl
Flight Number -
Tags Generated
Created
Modified
Stats Distance 130 nm / 240 km
Max Altitude 0 ft / 0 m
Waypoints 2
Social Downloads 1
Likes 0
Share VATSIM

Download

Looking for another format? Having issues loading an existing format? Contact us
Advertisement - Login to hide

Notes

Generated

Route

CYXE CYQR

ID Type Via Altitude Latitude Longitude Leg Dist Tot Dist Heading (true) Name
O CYXE APT - 0 ft / 0 m 52.17898˚ -106.70569˚ - 0 nm - -
O CYQR APT - 0 ft / 0 m 50.42819˚ -104.68085˚ 129 nm 129 nm 143° / 145° -

Altitude Profile

Advertisement - Login to hide

CYXE

Details ICAO CYXE (YXE)
Name Saskatoon J G Diefenbaker Intl
Region Canada
Timezone America/Regina (UTC-6.0)
Stats Elevation 1,653 ft / 504 m (AMSL)
Location 52.173650° -106.700575°
Runways 2
Magnetic Variation 10.305° E

METAR

CYXE 202200Z 19017G27KT 15SM FEW160 24/M00 A2995 RMK AC1 AC TR SLP151 DENSITY ALT 3100FT

Decode

TAF

TAF CYXE 201738Z 2018/2118 16012G22KT P6SM SKC BECMG 2018/2020 16018G28KT FM202100 16020G30KT P6SM SCT080 BECMG 2100/2102 16015KT FM210600 17012KT P6SM SKC FM211500 20010KT P6SM FEW090 RMK NXT FCST BY 210000Z

Decode

Departure Runways

ID Width Length Bearing (true) Bearing (mag) Surface Threshold Offset Overrun Length
09 151 ft / 46 m 8,271 ft / 2,521 m 101.02° 90.71° Asphalt 0 ft / 0 m 0 ft / 0 m
15 151 ft / 46 m 6,201 ft / 1,890 m 161.08° 150.77° Asphalt 0 ft / 0 m 0 ft / 0 m
27 151 ft / 46 m 8,271 ft / 2,521 m 281.05° 270.74° Asphalt 0 ft / 0 m 0 ft / 0 m
33 151 ft / 46 m 6,201 ft / 1,890 m 341.08° 330.77° Asphalt 0 ft / 0 m 0 ft / 0 m

CYQR

Details ICAO CYQR (YQR)
Name Regina Intl
Region Canada
Timezone America/Regina (UTC-6.0)
Stats Elevation 1,894 ft / 577 m (AMSL)
Location 50.429722° -104.663567°
Runways 2
Magnetic Variation 8.805° E

METAR

CYQR 202200Z 18023G30KT 15SM SKC 24/M04 A3002 RMK SLP176 DENSITY ALT 3300FT

Decode

TAF

TAF CYQR 201738Z 2018/2118 18015G25KT P6SM SKC BECMG 2019/2021 18020G30KT FM210300 16015KT P6SM SKC RMK NXT FCST BY 210000Z

Decode

Destination Runways

ID Width Length Bearing (true) Bearing (mag) Surface Threshold Offset Overrun Length
08 151 ft / 46 m 6,173 ft / 1,882 m 89.98° 81.17° Asphalt 0 ft / 0 m 0 ft / 0 m
13 151 ft / 46 m 7,878 ft / 2,401 m 138.06° 129.25° Asphalt 0 ft / 0 m 95 ft / 29 m
26 151 ft / 46 m 6,173 ft / 1,882 m 270.00° 261.19° Asphalt 0 ft / 0 m 98 ft / 30 m
31 151 ft / 46 m 7,878 ft / 2,401 m 318.08° 309.27° Asphalt 0 ft / 0 m 98 ft / 30 m

Approach Navaids

Runway Type Ident Frequency Range Bearing (true) Bearing (mag) Slope Elevation
13 Localiser IQR 109.50 MHz 18 nm / 33 km 138.10° 129.29° - 1,894 ft / 577 m (AMSL)
13 Glidescope IQR 109.50 MHz 10 nm / 19 km 138.10° 129.29° 3.00° 1,894 ft / 577 m (AMSL)

Popular Alternatives